createdAt,value
2019-05-19T00:01:31.785Z,4.83
2019-05-19T00:04:01.463Z,4.53
2019-05-19T00:06:31.139Z,3.10
2019-05-19T00:09:00.873Z,5.33
2019-05-19T00:11:30.573Z,3.92
2019-05-19T00:14:00.260Z,6.50
2019-05-19T00:16:29.945Z,5.17
2019-05-19T00:18:59.638Z,9.58
2019-05-19T00:21:29.373Z,6.53
2019-05-19T00:23:59.863Z,5.53
2019-05-19T00:26:29.913Z,10.18
2019-05-19T00:28:59.505Z,10.08
2019-05-19T00:31:29.218Z,7.72
2019-05-19T00:33:58.706Z,9.53
2019-05-19T00:36:28.328Z,9.55
2019-05-19T00:38:57.920Z,12.60
2019-05-19T00:41:27.519Z,13.00
2019-05-19T00:43:57.250Z,23.80
2019-05-19T00:46:27.009Z,18.70
2019-05-19T00:48:56.657Z,25.32
2019-05-19T00:51:26.539Z,17.62
2019-05-19T00:53:56.333Z,18.37
2019-05-19T00:56:26.661Z,17.35
2019-05-19T00:58:58.080Z,18.48
2019-05-19T01:01:27.730Z,15.15
2019-05-19T01:03:57.441Z,15.35
2019-05-19T01:06:27.060Z,28.95
2019-05-19T01:08:56.725Z,27.15
2019-05-19T01:11:26.320Z,14.10
2019-05-19T01:13:56.048Z,7.08
2019-05-19T01:16:25.680Z,16.20
2019-05-19T01:18:55.303Z,31.10
2019-05-19T01:21:25.616Z,29.23
2019-05-19T01:23:55.374Z,20.77
2019-05-19T01:26:25.000Z,22.27
2019-05-19T01:28:54.723Z,22.10
2019-05-19T01:31:24.499Z,21.60
2019-05-19T01:33:54.389Z,24.37
2019-05-19T01:36:24.091Z,18.35
2019-05-19T01:38:53.683Z,15.90
2019-05-19T01:41:23.470Z,12.78
2019-05-19T01:43:53.313Z,7.22
2019-05-19T01:46:22.947Z,6.70
2019-05-19T01:48:52.622Z,6.12
2019-05-19T01:51:22.399Z,6.62
2019-05-19T01:53:52.044Z,6.25
2019-05-19T01:56:21.689Z,5.42
2019-05-19T01:58:51.516Z,5.78
2019-05-19T02:01:24.156Z,6.30
2019-05-19T02:03:53.892Z,5.20
2019-05-19T02:06:23.545Z,5.92
2019-05-19T02:08:53.347Z,5.83
2019-05-19T02:11:23.097Z,6.87
2019-05-19T02:13:52.842Z,7.35
2019-05-19T02:16:22.446Z,7.97
2019-05-19T02:18:52.142Z,7.65
2019-05-19T02:21:21.792Z,7.28
2019-05-19T02:23:51.511Z,6.67
2019-05-19T02:26:21.314Z,6.97
2019-05-19T02:28:50.969Z,7.55
2019-05-19T02:31:20.878Z,7.05
2019-05-19T02:33:50.444Z,9.53
2019-05-19T02:36:20.182Z,8.40
2019-05-19T02:38:49.893Z,8.93
2019-05-19T02:41:22.033Z,8.00
2019-05-19T02:46:22.701Z,9.28
2019-05-19T02:48:54.337Z,7.75
2019-05-19T02:51:27.013Z,8.90
2019-05-19T02:53:57.302Z,10.28
2019-05-19T02:56:29.551Z,10.80
2019-05-19T02:59:01.220Z,10.20
2019-05-19T03:01:30.995Z,12.60
2019-05-19T03:04:00.784Z,9.10
2019-05-19T03:06:30.523Z,8.90
2019-05-19T03:09:00.190Z,10.90
2019-05-19T03:11:29.782Z,11.48
2019-05-19T03:13:59.417Z,12.70
2019-05-19T03:16:29.203Z,12.10
2019-05-19T03:18:58.799Z,15.28
2019-05-19T03:21:28.566Z,10.78
2019-05-19T03:23:58.285Z,8.65
2019-05-19T03:26:27.913Z,11.05
2019-05-19T03:28:58.051Z,10.63
2019-05-19T03:31:29.449Z,8.83
2019-05-19T03:34:00.498Z,12.05
2019-05-19T03:38:59.359Z,12.18
2019-05-19T03:41:30.163Z,9.25
2019-05-19T03:44:00.477Z,11.48
2019-05-19T03:46:30.600Z,10.80
2019-05-19T03:49:00.602Z,10.35
2019-05-19T03:51:31.970Z,11.55
2019-05-19T03:54:02.621Z,12.63
2019-05-19T03:56:33.138Z,12.90
2019-05-19T03:59:03.552Z,13.35
2019-05-19T04:01:33.672Z,9.43
2019-05-19T04:04:03.959Z,12.00
2019-05-19T04:06:34.150Z,13.70
2019-05-19T04:09:05.703Z,11.48
2019-05-19T04:11:35.968Z,11.28
2019-05-19T04:14:06.294Z,12.23
2019-05-19T04:16:36.298Z,13.75
2019-05-19T04:19:06.301Z,15.68
2019-05-19T04:21:48.054Z,13.13
2019-05-19T04:24:08.641Z,13.22
2019-05-19T04:26:38.823Z,12.98
2019-05-19T04:29:09.087Z,9.93
2019-05-19T04:31:39.364Z,11.03
2019-05-19T04:34:09.559Z,8.95
2019-05-19T04:36:39.626Z,12.18
2019-05-19T04:39:09.802Z,9.18
2019-05-19T04:41:41.109Z,14.33
2019-05-19T04:44:11.337Z,11.00
2019-05-19T04:46:41.434Z,16.05
2019-05-19T04:49:11.706Z,12.10
2019-05-19T04:51:41.877Z,11.48
2019-05-19T04:54:11.876Z,10.93
2019-05-19T04:56:42.057Z,10.43
2019-05-19T04:59:12.399Z,10.32
2019-05-19T05:01:42.748Z,11.93
2019-05-19T05:04:12.856Z,8.38
2019-05-19T05:06:43.141Z,7.45
2019-05-19T05:09:13.518Z,10.90
2019-05-19T05:11:43.682Z,10.08
2019-05-19T05:14:14.122Z,6.17
2019-05-19T05:16:44.155Z,7.78
2019-05-19T05:19:14.128Z,7.25
2019-05-19T05:21:44.163Z,8.63
2019-05-19T05:24:14.156Z,6.95
2019-05-19T05:26:44.188Z,7.28
2019-05-19T05:29:14.196Z,6.72
2019-05-19T05:31:44.485Z,6.22
2019-05-19T05:34:14.814Z,4.85
2019-05-19T05:36:44.966Z,7.08
2019-05-19T05:39:14.961Z,4.95
2019-05-19T05:41:45.104Z,6.83
2019-05-19T05:44:15.555Z,4.33
2019-05-19T05:46:45.983Z,5.35
2019-05-19T05:49:16.371Z,6.22
2019-05-19T05:51:46.428Z,7.12
2019-05-19T05:54:16.603Z,5.45
2019-05-19T05:56:47.815Z,8.05
2019-05-19T05:59:18.183Z,12.20
2019-05-19T06:01:48.539Z,6.87
2019-05-19T06:04:18.809Z,7.40
2019-05-19T06:06:49.080Z,6.30
2019-05-19T06:11:48.204Z,4.67
2019-05-19T06:14:18.295Z,7.30
2019-05-19T06:16:48.581Z,9.85
2019-05-19T06:19:18.651Z,8.18
2019-05-19T06:21:48.824Z,7.22
2019-05-19T06:24:19.094Z,7.60
2019-05-19T06:26:49.211Z,10.90
2019-05-19T06:29:19.536Z,6.92
2019-05-19T06:31:49.832Z,8.60
2019-05-19T06:34:19.927Z,11.22
2019-05-19T06:36:50.172Z,9.10
2019-05-19T06:39:20.493Z,5.58
2019-05-19T06:41:50.615Z,6.53
2019-05-19T06:44:20.673Z,8.98
2019-05-19T06:46:50.951Z,5.12
2019-05-19T06:49:21.165Z,4.65
2019-05-19T06:51:51.357Z,4.28
2019-05-19T06:54:21.632Z,4.67
2019-05-19T06:56:51.777Z,5.17
2019-05-19T06:59:21.973Z,12.20
2019-05-19T07:01:52.358Z,5.97
2019-05-19T07:04:22.525Z,4.50
2019-05-19T07:06:53.082Z,4.22
2019-05-19T07:09:23.383Z,3.87
2019-05-19T07:11:53.867Z,5.10
2019-05-19T07:14:24.142Z,4.20
2019-05-19T07:16:54.466Z,7.47
2019-05-19T07:19:24.568Z,4.50
2019-05-19T07:21:54.804Z,5.30
2019-05-19T07:24:25.210Z,4.37
2019-05-19T07:26:55.457Z,5.03
2019-05-19T07:29:25.711Z,5.42
2019-05-19T07:31:55.829Z,5.15
2019-05-19T07:34:25.978Z,7.60
2019-05-19T07:36:56.013Z,8.90
2019-05-19T07:39:26.360Z,15.13
2019-05-19T07:41:56.472Z,13.70
2019-05-19T07:44:26.836Z,15.25
2019-05-19T07:46:56.944Z,14.68
2019-05-19T07:49:27.103Z,15.48
2019-05-19T07:51:57.435Z,15.60
2019-05-19T07:54:27.500Z,16.97
2019-05-19T07:56:57.716Z,14.18
2019-05-19T07:59:27.807Z,15.65
2019-05-19T08:01:58.063Z,15.32
2019-05-19T08:04:28.156Z,16.30
2019-05-19T08:06:58.104Z,16.50
2019-05-19T08:09:28.448Z,18.82
2019-05-19T08:14:27.850Z,19.15
2019-05-19T08:16:57.832Z,22.15
2019-05-19T08:19:28.256Z,17.25
2019-05-19T08:21:58.617Z,21.70
2019-05-19T08:24:28.740Z,21.25
2019-05-19T08:26:59.072Z,16.02
2019-05-19T08:29:29.381Z,18.90
2019-05-19T08:31:59.611Z,18.20
2019-05-19T08:34:29.999Z,17.17
2019-05-19T08:37:00.069Z,15.90
2019-05-19T08:39:30.142Z,15.75
2019-05-19T08:42:00.385Z,12.07
2019-05-19T08:44:30.650Z,15.30
2019-05-19T08:47:01.254Z,13.20
2019-05-19T08:49:31.645Z,13.38
2019-05-19T08:52:01.845Z,19.12
2019-05-19T08:54:32.115Z,18.27
2019-05-19T08:57:02.196Z,26.40
2019-05-19T08:59:32.162Z,20.92
2019-05-19T09:02:02.478Z,22.87
2019-05-19T09:04:32.744Z,15.98
2019-05-19T09:07:03.141Z,17.85
2019-05-19T09:09:33.437Z,13.55
2019-05-19T09:12:03.695Z,15.85
2019-05-19T09:14:34.062Z,17.25
2019-05-19T09:17:04.385Z,10.78
2019-05-19T09:19:34.651Z,14.30
2019-05-19T09:22:04.885Z,10.20
2019-05-19T09:24:37.259Z,10.93
2019-05-19T09:27:07.047Z,13.75
2019-05-19T09:29:37.263Z,14.63
2019-05-19T09:32:07.741Z,10.08
2019-05-19T09:34:38.085Z,10.95
2019-05-19T09:37:08.182Z,8.80
2019-05-19T09:39:38.169Z,10.98
2019-05-19T09:42:08.439Z,8.43
2019-05-19T09:44:38.652Z,9.10
2019-05-19T09:47:08.831Z,8.75
2019-05-19T09:49:38.996Z,6.78
2019-05-19T09:52:09.675Z,6.95
2019-05-19T09:54:45.132Z,6.97
2019-05-19T09:57:11.859Z,7.28
2019-05-19T09:59:42.249Z,8.05
2019-05-19T10:02:12.384Z,5.30
2019-05-19T10:04:42.398Z,5.50
2019-05-19T10:07:12.765Z,4.22
2019-05-19T10:09:58.673Z,5.53
2019-05-19T10:12:30.205Z,5.28
2019-05-19T10:15:00.655Z,5.35
2019-05-19T10:17:31.161Z,6.12
2019-05-19T10:20:01.292Z,5.92
2019-05-19T10:22:31.643Z,3.20
2019-05-19T10:25:20.230Z,7.22
2019-05-19T10:27:33.875Z,5.33
2019-05-19T10:30:05.530Z,4.25
2019-05-19T10:32:35.527Z,6.00
2019-05-19T10:35:07.532Z,6.13
2019-05-19T10:37:37.891Z,4.42
2019-05-19T10:40:08.640Z,4.05
2019-05-19T10:42:38.876Z,3.40
2019-05-19T10:45:11.596Z,5.30
2019-05-19T10:47:41.809Z,6.97
2019-05-19T10:50:12.387Z,4.70
2019-05-19T10:52:42.497Z,6.72
2019-05-19T10:55:12.770Z,5.42
2019-05-19T10:57:42.991Z,4.37
2019-05-19T11:00:14.857Z,7.10
2019-05-19T11:02:45.128Z,5.92
2019-05-19T11:05:15.629Z,6.95
2019-05-19T11:07:45.764Z,4.35
2019-05-19T11:10:16.351Z,5.33
2019-05-19T11:12:47.058Z,4.25
2019-05-19T11:15:18.835Z,6.25
2019-05-19T11:17:49.123Z,5.08
2019-05-19T11:20:19.284Z,4.33
2019-05-19T11:22:49.627Z,5.30
2019-05-19T11:25:33.014Z,4.10
2019-05-19T11:30:21.237Z,4.20
2019-05-19T11:32:51.473Z,3.70
2019-05-19T11:35:21.895Z,4.78
2019-05-19T11:37:52.246Z,4.75
2019-05-19T11:40:22.677Z,5.67
2019-05-19T11:42:52.897Z,5.55
2019-05-19T11:45:23.242Z,4.05
2019-05-19T11:47:53.354Z,3.60
2019-05-19T11:50:23.669Z,3.25
2019-05-19T11:52:53.954Z,3.55
2019-05-19T11:55:24.351Z,3.77
2019-05-19T11:57:54.752Z,3.83
2019-05-19T12:00:25.048Z,3.92
2019-05-19T12:02:55.352Z,5.12
2019-05-19T12:05:25.816Z,6.80
2019-05-19T12:07:55.929Z,3.77
2019-05-19T12:10:26.065Z,3.20
2019-05-19T12:12:56.425Z,3.25
2019-05-19T12:15:26.758Z,3.55
2019-05-19T12:17:56.998Z,4.37
2019-05-19T12:20:27.333Z,2.85
2019-05-19T12:22:57.502Z,2.37
2019-05-19T12:25:27.902Z,3.90
2019-05-19T12:27:58.179Z,3.37
2019-05-19T12:30:28.239Z,4.58
2019-05-19T12:32:59.403Z,3.45
2019-05-19T12:35:29.602Z,3.47
2019-05-19T12:37:59.808Z,2.40
2019-05-19T12:40:30.175Z,4.60
2019-05-19T12:43:00.400Z,2.30
2019-05-19T12:45:30.707Z,4.15
2019-05-19T12:48:01.052Z,2.30
2019-05-19T12:50:31.411Z,2.22
2019-05-19T12:53:01.635Z,2.42
2019-05-19T12:55:31.896Z,2.72
2019-05-19T12:58:02.349Z,2.45
2019-05-19T13:00:32.523Z,2.55
2019-05-19T13:03:02.893Z,4.42
2019-05-19T13:05:33.152Z,2.10
2019-05-19T13:08:03.384Z,2.52
2019-05-19T13:10:33.478Z,2.12
2019-05-19T13:13:03.589Z,4.80
2019-05-19T13:15:33.783Z,5.42
2019-05-19T13:18:04.098Z,1.50
2019-05-19T13:20:34.373Z,2.72
2019-05-19T13:23:04.681Z,4.37
2019-05-19T13:25:35.011Z,1.80
2019-05-19T13:28:05.242Z,1.87
2019-05-19T13:30:35.473Z,2.25
2019-05-19T13:33:05.687Z,1.87
2019-05-19T13:35:36.008Z,1.57
2019-05-19T13:38:06.375Z,1.65
2019-05-19T13:40:36.600Z,4.55
2019-05-19T13:43:07.186Z,1.82
2019-05-19T13:45:37.423Z,1.92
2019-05-19T13:48:07.526Z,1.40
2019-05-19T13:50:38.575Z,5.42
2019-05-19T13:53:08.902Z,1.73
2019-05-19T13:55:39.282Z,2.67
2019-05-19T13:58:09.467Z,1.27
2019-05-19T14:00:39.567Z,2.25
2019-05-19T14:03:09.804Z,2.08
2019-05-19T14:05:39.986Z,4.12
2019-05-19T14:08:10.277Z,3.45
2019-05-19T14:10:40.717Z,1.72
2019-05-19T14:13:16.625Z,2.05
2019-05-19T14:15:46.952Z,2.67
2019-05-19T14:18:17.183Z,3.00
2019-05-19T14:20:47.460Z,1.95
2019-05-19T14:23:17.729Z,2.12
2019-05-19T14:25:47.976Z,3.67
2019-05-19T14:28:18.153Z,2.25
2019-05-19T14:30:48.366Z,1.82
2019-05-19T14:33:18.653Z,1.17
2019-05-19T14:35:48.913Z,1.02
2019-05-19T14:38:19.125Z,1.25
2019-05-19T14:40:49.241Z,1.70
2019-05-19T14:43:23.680Z,1.20
2019-05-19T14:45:53.977Z,1.40
2019-05-19T14:48:24.124Z,3.47
2019-05-19T14:50:54.565Z,3.12
2019-05-19T14:53:24.850Z,0.78
2019-05-19T14:55:55.153Z,2.90
2019-05-19T14:58:25.322Z,2.12
2019-05-19T15:00:55.458Z,1.30
2019-05-19T15:03:25.475Z,1.40
2019-05-19T15:05:55.516Z,1.15
2019-05-19T15:08:25.452Z,1.47
2019-05-19T15:10:55.556Z,1.85
2019-05-19T15:13:25.747Z,1.47
2019-05-19T15:15:58.008Z,1.37
2019-05-19T15:18:27.828Z,1.82
2019-05-19T15:20:57.955Z,3.22
2019-05-19T15:23:28.380Z,5.65
2019-05-19T15:25:58.430Z,3.00
2019-05-19T15:28:28.683Z,2.65
2019-05-19T15:30:59.005Z,1.37
2019-05-19T15:33:37.057Z,1.42
2019-05-19T15:36:01.094Z,2.22
2019-05-19T15:38:31.521Z,2.58
2019-05-19T15:41:01.817Z,1.62
2019-05-19T15:43:32.072Z,2.17
2019-05-19T15:46:02.330Z,1.40
2019-05-19T15:48:32.470Z,2.90
2019-05-19T15:51:02.707Z,2.37
2019-05-19T15:53:32.982Z,1.82
2019-05-19T15:56:03.289Z,2.60
2019-05-19T15:58:33.414Z,3.15
2019-05-19T16:01:03.911Z,1.80
2019-05-19T16:03:34.083Z,2.20
2019-05-19T16:06:04.292Z,2.70
2019-05-19T16:08:34.296Z,2.65
2019-05-19T16:11:04.522Z,2.22
2019-05-19T16:13:34.728Z,2.05
2019-05-19T16:16:05.289Z,3.08
2019-05-19T16:18:35.525Z,1.90
2019-05-19T16:21:05.897Z,2.15
2019-05-19T16:23:36.031Z,2.33
2019-05-19T16:26:06.109Z,4.08
2019-05-19T16:28:36.319Z,2.95
2019-05-19T16:31:06.428Z,1.98
2019-05-19T16:33:36.575Z,2.55
2019-05-19T16:36:07.996Z,2.30
2019-05-19T16:38:38.477Z,2.40
2019-05-19T16:41:08.724Z,2.15
2019-05-19T16:43:38.905Z,2.92
2019-05-19T16:46:09.304Z,1.98
2019-05-19T16:48:39.424Z,3.00
2019-05-19T16:51:09.618Z,2.60
2019-05-19T16:53:39.664Z,3.60
2019-05-19T16:56:09.778Z,2.50
2019-05-19T16:58:45.197Z,3.05
2019-05-19T17:01:11.926Z,3.17
2019-05-19T17:03:42.113Z,2.62
2019-05-19T17:06:12.276Z,2.70
2019-05-19T17:08:42.404Z,3.42
2019-05-19T17:11:18.311Z,3.40
2019-05-19T17:13:44.079Z,5.72
2019-05-19T17:16:14.153Z,3.10
2019-05-19T17:18:44.088Z,3.02
2019-05-19T17:21:14.255Z,3.42
2019-05-19T17:23:44.491Z,3.25
2019-05-19T17:26:14.490Z,3.62
2019-05-19T17:28:57.620Z,6.67
2019-05-19T17:31:16.391Z,4.20
2019-05-19T17:33:46.518Z,6.40
2019-05-19T17:36:16.715Z,3.80
2019-05-19T17:38:47.020Z,3.60
2019-05-19T17:41:17.095Z,3.80
2019-05-19T17:43:47.367Z,3.72
2019-05-19T17:46:17.592Z,4.72
2019-05-19T17:48:47.812Z,5.12
2019-05-19T17:51:18.101Z,5.50
2019-05-19T17:53:48.327Z,7.47
2019-05-19T17:56:19.123Z,8.20
2019-05-19T17:58:49.652Z,7.47
2019-05-19T18:01:20.031Z,8.30
2019-05-19T18:03:51.342Z,8.40
2019-05-19T18:06:21.568Z,9.10
2019-05-19T18:08:51.867Z,8.45
2019-05-19T18:11:22.127Z,9.23
2019-05-19T18:13:52.450Z,10.48
2019-05-19T18:16:22.671Z,10.08
2019-05-19T18:18:52.733Z,12.65
2019-05-19T18:21:23.027Z,10.95
2019-05-19T18:23:53.303Z,9.75
2019-05-19T18:26:23.614Z,10.03
2019-05-19T18:28:53.927Z,10.35
2019-05-19T18:31:24.065Z,8.40
2019-05-19T18:33:54.216Z,11.33
2019-05-19T18:36:24.581Z,9.48
2019-05-19T18:38:54.708Z,12.88
2019-05-19T18:41:25.140Z,10.48
2019-05-19T18:43:55.482Z,11.57
2019-05-19T18:46:25.847Z,11.70
2019-05-19T18:48:56.262Z,10.82
2019-05-19T18:51:26.532Z,12.10
2019-05-19T18:53:56.933Z,12.03
2019-05-19T18:56:27.233Z,16.07
2019-05-19T18:58:57.401Z,13.72
2019-05-19T19:01:27.680Z,14.28
2019-05-19T19:03:58.025Z,15.13
2019-05-19T19:06:31.273Z,15.63
2019-05-19T19:09:01.520Z,15.28
2019-05-19T19:11:31.741Z,15.08
2019-05-19T19:14:02.208Z,19.92
2019-05-19T19:16:32.494Z,15.00
2019-05-19T19:19:02.961Z,16.57
2019-05-19T19:21:33.261Z,17.87
2019-05-19T19:24:03.542Z,17.50
2019-05-19T19:26:33.617Z,17.80
2019-05-19T19:29:04.092Z,18.15
2019-05-19T19:31:47.703Z,18.70
2019-05-19T19:34:06.006Z,19.85
2019-05-19T19:36:36.378Z,18.77
2019-05-19T19:39:07.643Z,18.45
2019-05-19T19:41:38.009Z,19.62
2019-05-19T19:44:08.210Z,20.57
2019-05-19T19:46:38.190Z,19.67
2019-05-19T19:49:08.056Z,20.48
2019-05-19T19:51:37.705Z,20.05
2019-05-19T19:54:07.343Z,20.85
2019-05-19T19:56:37.119Z,24.02
2019-05-19T19:59:07.177Z,22.62
2019-05-19T20:01:36.812Z,22.82
2019-05-19T20:04:06.484Z,24.20
2019-05-19T20:06:36.060Z,27.73
2019-05-19T20:09:07.666Z,29.77
2019-05-19T20:11:37.239Z,29.37
2019-05-19T20:14:07.057Z,34.90
2019-05-19T20:16:36.717Z,30.52
2019-05-19T20:19:06.392Z,35.17
2019-05-19T20:21:36.082Z,34.88
2019-05-19T20:24:05.737Z,41.42
2019-05-19T20:26:35.426Z,39.30
2019-05-19T20:29:05.011Z,35.70
2019-05-19T20:31:34.596Z,38.50
2019-05-19T20:34:04.395Z,38.73
2019-05-19T20:36:34.078Z,38.55
2019-05-19T20:39:04.994Z,41.15
2019-05-19T20:41:34.570Z,41.15
2019-05-19T20:44:04.771Z,44.35
2019-05-19T20:46:34.531Z,40.10
2019-05-19T20:49:04.339Z,41.80
2019-05-19T20:51:34.033Z,43.30
2019-05-19T20:54:03.762Z,42.33
2019-05-19T20:56:33.371Z,40.90
2019-05-19T20:59:03.060Z,40.55
2019-05-19T21:01:32.689Z,46.68
2019-05-19T21:04:02.391Z,41.55
2019-05-19T21:06:32.097Z,39.78
2019-05-19T21:09:01.681Z,39.70
2019-05-19T21:11:31.280Z,40.12
2019-05-19T21:14:00.922Z,40.00
2019-05-19T21:16:30.521Z,42.53
2019-05-19T21:19:00.322Z,41.15
2019-05-19T21:21:30.043Z,42.90
2019-05-19T21:23:59.676Z,41.18
2019-05-19T21:26:29.285Z,41.90
2019-05-19T21:28:58.991Z,43.40
2019-05-19T21:31:28.691Z,39.38
2019-05-19T21:33:58.300Z,42.30
2019-05-19T21:36:27.989Z,40.78
2019-05-19T21:38:57.566Z,42.30
2019-05-19T21:41:27.317Z,41.50
2019-05-19T21:43:56.949Z,39.08
2019-05-19T21:46:26.589Z,35.50
2019-05-19T21:48:56.302Z,37.05
2019-05-19T21:51:25.876Z,33.83
2019-05-19T21:53:55.418Z,33.28
2019-05-19T21:56:25.159Z,34.15
2019-05-19T21:58:54.908Z,32.45
2019-05-19T22:01:24.437Z,31.40
2019-05-19T22:03:54.032Z,33.63
2019-05-19T22:06:25.358Z,31.82
2019-05-19T22:08:55.130Z,33.63
2019-05-19T22:11:24.719Z,31.85
2019-05-19T22:13:54.341Z,33.58
2019-05-19T22:16:24.088Z,31.97
2019-05-19T22:18:53.803Z,28.83
2019-05-19T22:21:23.427Z,30.35
2019-05-19T22:23:53.081Z,32.40
2019-05-19T22:26:23.314Z,30.62
2019-05-19T22:28:52.996Z,27.20
2019-05-19T22:31:36.031Z,28.85
2019-05-19T22:33:53.968Z,29.40
2019-05-19T22:36:23.615Z,32.63
2019-05-19T22:38:53.338Z,27.75
2019-05-19T22:41:22.997Z,29.95
2019-05-19T22:43:53.124Z,27.15
2019-05-19T22:46:22.855Z,29.60
2019-05-19T22:48:52.541Z,29.63
2019-05-19T22:51:22.883Z,32.17
2019-05-19T22:53:52.874Z,31.90
2019-05-19T22:56:22.599Z,32.13
2019-05-19T22:58:52.330Z,33.18
2019-05-19T23:01:22.006Z,34.50
2019-05-19T23:03:51.704Z,32.40
2019-05-19T23:06:21.377Z,31.95
2019-05-19T23:08:51.120Z,33.92
2019-05-19T23:11:20.757Z,36.25
2019-05-19T23:13:50.572Z,35.83
2019-05-19T23:16:20.336Z,35.58
2019-05-19T23:18:50.158Z,32.25
2019-05-19T23:21:19.924Z,35.03
2019-05-19T23:23:49.504Z,31.65
2019-05-19T23:26:19.136Z,37.33
2019-05-19T23:28:48.692Z,40.88
2019-05-19T23:31:18.360Z,40.25
2019-05-19T23:33:48.016Z,34.45
2019-05-19T23:36:17.609Z,36.15
2019-05-19T23:38:47.298Z,40.17
2019-05-19T23:41:16.968Z,33.10
2019-05-19T23:43:46.577Z,34.67
2019-05-19T23:46:16.342Z,35.73
2019-05-19T23:48:45.903Z,29.70
2019-05-19T23:51:15.573Z,39.13
2019-05-19T23:53:45.340Z,30.32
2019-05-19T23:56:15.124Z,39.73
2019-05-19T23:58:44.771Z,36.88
